sensor_id;sensor_type;location;lat;lon;timestamp;P1;durP1;ratioP1;P2;durP2;ratioP2
78877;SDS011;68257;43.514;1.498;2023-06-14T00:00:09;5.25;;;2.50;;
78877;SDS011;68257;43.514;1.498;2023-06-14T00:02:37;4.78;;;2.60;;
78877;SDS011;68257;43.514;1.498;2023-06-14T00:05:04;4.57;;;3.00;;
78877;SDS011;68257;43.514;1.498;2023-06-14T00:07:37;4.72;;;3.15;;
78877;SDS011;68257;43.514;1.498;2023-06-14T00:10:07;4.88;;;3.03;;
78877;SDS011;68257;43.514;1.498;2023-06-14T00:12:33;6.05;;;3.80;;
78877;SDS011;68257;43.514;1.498;2023-06-14T00:14:59;5.30;;;3.27;;
78877;SDS011;68257;43.514;1.498;2023-06-14T00:17:26;6.03;;;3.53;;
78877;SDS011;68257;43.514;1.498;2023-06-14T00:19:55;5.05;;;3.10;;
78877;SDS011;68257;43.514;1.498;2023-06-14T00:22:21;4.63;;;2.90;;
78877;SDS011;68257;43.514;1.498;2023-06-14T00:24:49;6.27;;;3.13;;
78877;SDS011;68257;43.514;1.498;2023-06-14T00:27:15;5.10;;;2.95;;
78877;SDS011;68257;43.514;1.498;2023-06-14T00:29:40;4.70;;;3.10;;
78877;SDS011;68257;43.514;1.498;2023-06-14T00:32:06;4.80;;;2.90;;
78877;SDS011;68257;43.514;1.498;2023-06-14T00:34:32;5.45;;;3.10;;
78877;SDS011;68257;43.514;1.498;2023-06-14T00:36:57;6.53;;;3.13;;
78877;SDS011;68257;43.514;1.498;2023-06-14T00:39:23;4.78;;;3.08;;
78877;SDS011;68257;43.514;1.498;2023-06-14T00:41:48;4.60;;;3.13;;
78877;SDS011;68257;43.514;1.498;2023-06-14T00:44:14;4.50;;;2.93;;
78877;SDS011;68257;43.514;1.498;2023-06-14T00:46:41;4.60;;;3.10;;
78877;SDS011;68257;43.514;1.498;2023-06-14T00:49:07;5.32;;;2.83;;
78877;SDS011;68257;43.514;1.498;2023-06-14T00:51:33;5.87;;;3.30;;
78877;SDS011;68257;43.514;1.498;2023-06-14T00:53:59;5.07;;;3.00;;
78877;SDS011;68257;43.514;1.498;2023-06-14T00:56:24;5.07;;;3.00;;
78877;SDS011;68257;43.514;1.498;2023-06-14T00:58:50;5.37;;;3.00;;
78877;SDS011;68257;43.514;1.498;2023-06-14T01:01:16;5.93;;;3.80;;
78877;SDS011;68257;43.514;1.498;2023-06-14T01:03:41;6.00;;;3.30;;
78877;SDS011;68257;43.514;1.498;2023-06-14T01:08:50;7.38;;;4.00;;
78877;SDS011;68257;43.514;1.498;2023-06-14T01:11:22;5.70;;;4.18;;
78877;SDS011;68257;43.514;1.498;2023-06-14T01:13:52;5.03;;;3.63;;
78877;SDS011;68257;43.514;1.498;2023-06-14T01:16:18;7.30;;;4.00;;
78877;SDS011;68257;43.514;1.498;2023-06-14T01:18:45;5.90;;;3.80;;
78877;SDS011;68257;43.514;1.498;2023-06-14T01:21:25;5.55;;;4.22;;
78877;SDS011;68257;43.514;1.498;2023-06-14T01:23:51;6.72;;;4.72;;
78877;SDS011;68257;43.514;1.498;2023-06-14T01:26:23;7.78;;;5.32;;
78877;SDS011;68257;43.514;1.498;2023-06-14T01:28:51;7.87;;;5.50;;
78877;SDS011;68257;43.514;1.498;2023-06-14T01:31:23;7.80;;;5.47;;
78877;SDS011;68257;43.514;1.498;2023-06-14T01:33:51;7.28;;;5.22;;
78877;SDS011;68257;43.514;1.498;2023-06-14T01:36:20;7.10;;;5.07;;
78877;SDS011;68257;43.514;1.498;2023-06-14T01:38:47;6.55;;;4.82;;
78877;SDS011;68257;43.514;1.498;2023-06-14T01:41:15;6.90;;;4.82;;
78877;SDS011;68257;43.514;1.498;2023-06-14T01:43:41;8.13;;;4.50;;
78877;SDS011;68257;43.514;1.498;2023-06-14T01:46:08;8.15;;;5.00;;
78877;SDS011;68257;43.514;1.498;2023-06-14T01:48:34;6.67;;;4.60;;
78877;SDS011;68257;43.514;1.498;2023-06-14T01:50:59;7.25;;;4.88;;
78877;SDS011;68257;43.514;1.498;2023-06-14T01:53:25;8.53;;;5.47;;
78877;SDS011;68257;43.514;1.498;2023-06-14T01:55:50;6.72;;;5.32;;
78877;SDS011;68257;43.514;1.498;2023-06-14T01:58:18;7.53;;;5.20;;
78877;SDS011;68257;43.514;1.498;2023-06-14T02:00:44;8.90;;;5.80;;
78877;SDS011;68257;43.514;1.498;2023-06-14T02:03:10;6.75;;;5.75;;
78877;SDS011;68257;43.514;1.498;2023-06-14T02:05:36;8.35;;;6.13;;
78877;SDS011;68257;43.514;1.498;2023-06-14T02:08:04;8.57;;;6.57;;
78877;SDS011;68257;43.514;1.498;2023-06-14T02:10:29;8.93;;;6.83;;
78877;SDS011;68257;43.514;1.498;2023-06-14T02:12:54;9.80;;;7.07;;
78877;SDS011;68257;43.514;1.498;2023-06-14T02:15:20;11.40;;;6.60;;
78877;SDS011;68257;43.514;1.498;2023-06-14T02:17:47;9.65;;;7.10;;
78877;SDS011;68257;43.514;1.498;2023-06-14T02:20:12;10.77;;;7.60;;
78877;SDS011;68257;43.514;1.498;2023-06-14T02:22:38;11.33;;;7.17;;
78877;SDS011;68257;43.514;1.498;2023-06-14T02:25:04;9.82;;;7.65;;
78877;SDS011;68257;43.514;1.498;2023-06-14T02:27:29;13.03;;;7.70;;
78877;SDS011;68257;43.514;1.498;2023-06-14T02:29:55;11.20;;;7.50;;
78877;SDS011;68257;43.514;1.498;2023-06-14T02:32:20;13.70;;;7.75;;
78877;SDS011;68257;43.514;1.498;2023-06-14T02:34:46;11.97;;;7.67;;
78877;SDS011;68257;43.514;1.498;2023-06-14T02:37:15;11.45;;;8.07;;
78877;SDS011;68257;43.514;1.498;2023-06-14T02:39:41;13.73;;;7.97;;
78877;SDS011;68257;43.514;1.498;2023-06-14T02:42:06;9.75;;;7.20;;
78877;SDS011;68257;43.514;1.498;2023-06-14T02:44:32;10.73;;;7.83;;
78877;SDS011;68257;43.514;1.498;2023-06-14T02:46:57;11.40;;;8.00;;
78877;SDS011;68257;43.514;1.498;2023-06-14T02:49:23;9.98;;;7.60;;
78877;SDS011;68257;43.514;1.498;2023-06-14T02:51:49;13.50;;;9.07;;
78877;SDS011;68257;43.514;1.498;2023-06-14T02:54:14;12.82;;;9.18;;
78877;SDS011;68257;43.514;1.498;2023-06-14T02:56:40;10.50;;;7.93;;
78877;SDS011;68257;43.514;1.498;2023-06-14T02:59:06;11.37;;;8.10;;
78877;SDS011;68257;43.514;1.498;2023-06-14T03:01:32;11.32;;;8.70;;
78877;SDS011;68257;43.514;1.498;2023-06-14T03:04:01;11.20;;;8.18;;
78877;SDS011;68257;43.514;1.498;2023-06-14T03:06:27;10.90;;;8.77;;
78877;SDS011;68257;43.514;1.498;2023-06-14T03:08:55;12.52;;;8.63;;
78877;SDS011;68257;43.514;1.498;2023-06-14T03:11:24;18.00;;;8.80;;
78877;SDS011;68257;43.514;1.498;2023-06-14T03:13:50;14.05;;;9.10;;
78877;SDS011;68257;43.514;1.498;2023-06-14T03:16:16;12.68;;;9.23;;
78877;SDS011;68257;43.514;1.498;2023-06-14T03:18:44;11.68;;;9.02;;
78877;SDS011;68257;43.514;1.498;2023-06-14T03:21:10;12.93;;;9.30;;
78877;SDS011;68257;43.514;1.498;2023-06-14T03:23:36;11.25;;;8.70;;
78877;SDS011;68257;43.514;1.498;2023-06-14T03:26:01;15.13;;;9.83;;
78877;SDS011;68257;43.514;1.498;2023-06-14T03:28:27;12.32;;;9.38;;
78877;SDS011;68257;43.514;1.498;2023-06-14T03:30:52;13.50;;;8.97;;
78877;SDS011;68257;43.514;1.498;2023-06-14T03:33:18;14.50;;;8.93;;
78877;SDS011;68257;43.514;1.498;2023-06-14T03:35:43;11.47;;;8.53;;
78877;SDS011;68257;43.514;1.498;2023-06-14T03:38:09;15.02;;;8.80;;
78877;SDS011;68257;43.514;1.498;2023-06-14T03:40:34;12.57;;;9.02;;
78877;SDS011;68257;43.514;1.498;2023-06-14T03:43:00;14.53;;;9.23;;
78877;SDS011;68257;43.514;1.498;2023-06-14T03:45:25;12.60;;;8.57;;
78877;SDS011;68257;43.514;1.498;2023-06-14T03:47:50;14.17;;;9.37;;
78877;SDS011;68257;43.514;1.498;2023-06-14T03:50:17;11.25;;;8.43;;
78877;SDS011;68257;43.514;1.498;2023-06-14T03:52:43;15.20;;;9.85;;
78877;SDS011;68257;43.514;1.498;2023-06-14T03:55:09;12.97;;;10.10;;
78877;SDS011;68257;43.514;1.498;2023-06-14T03:57:35;13.05;;;9.00;;
78877;SDS011;68257;43.514;1.498;2023-06-14T04:00:00;10.63;;;8.68;;
78877;SDS011;68257;43.514;1.498;2023-06-14T04:02:26;12.70;;;9.37;;
78877;SDS011;68257;43.514;1.498;2023-06-14T04:04:54;12.25;;;9.57;;
78877;SDS011;68257;43.514;1.498;2023-06-14T04:07:19;13.82;;;9.57;;
78877;SDS011;68257;43.514;1.498;2023-06-14T04:09:45;13.00;;;8.70;;
78877;SDS011;68257;43.514;1.498;2023-06-14T04:12:11;11.77;;;8.82;;
78877;SDS011;68257;43.514;1.498;2023-06-14T04:14:39;12.47;;;9.10;;
78877;SDS011;68257;43.514;1.498;2023-06-14T04:17:05;14.05;;;9.43;;
78877;SDS011;68257;43.514;1.498;2023-06-14T04:19:30;11.53;;;8.57;;
78877;SDS011;68257;43.514;1.498;2023-06-14T04:21:56;13.65;;;8.82;;
78877;SDS011;68257;43.514;1.498;2023-06-14T04:24:22;11.83;;;8.53;;
78877;SDS011;68257;43.514;1.498;2023-06-14T04:26:48;12.27;;;8.75;;
78877;SDS011;68257;43.514;1.498;2023-06-14T04:29:14;12.57;;;9.10;;
78877;SDS011;68257;43.514;1.498;2023-06-14T04:31:44;10.95;;;8.52;;
78877;SDS011;68257;43.514;1.498;2023-06-14T04:34:10;12.10;;;9.35;;
78877;SDS011;68257;43.514;1.498;2023-06-14T04:36:40;11.68;;;8.52;;
78877;SDS011;68257;43.514;1.498;2023-06-14T04:39:16;12.48;;;9.35;;
78877;SDS011;68257;43.514;1.498;2023-06-14T04:41:42;14.13;;;9.30;;
78877;SDS011;68257;43.514;1.498;2023-06-14T04:44:08;14.20;;;9.93;;
78877;SDS011;68257;43.514;1.498;2023-06-14T04:46:35;14.60;;;9.65;;
78877;SDS011;68257;43.514;1.498;2023-06-14T04:49:09;12.68;;;10.65;;
78877;SDS011;68257;43.514;1.498;2023-06-14T04:51:35;14.80;;;10.93;;
78877;SDS011;68257;43.514;1.498;2023-06-14T04:54:02;17.67;;;11.18;;
78877;SDS011;68257;43.514;1.498;2023-06-14T04:56:28;17.10;;;10.17;;
78877;SDS011;68257;43.514;1.498;2023-06-14T04:58:55;14.25;;;10.90;;
78877;SDS011;68257;43.514;1.498;2023-06-14T05:01:21;16.58;;;10.05;;
78877;SDS011;68257;43.514;1.498;2023-06-14T05:03:48;17.55;;;11.20;;
78877;SDS011;68257;43.514;1.498;2023-06-14T05:06:14;13.60;;;10.80;;
78877;SDS011;68257;43.514;1.498;2023-06-14T05:08:40;18.37;;;12.10;;
78877;SDS011;68257;43.514;1.498;2023-06-14T05:11:06;16.80;;;11.77;;
78877;SDS011;68257;43.514;1.498;2023-06-14T05:13:32;17.53;;;12.00;;
78877;SDS011;68257;43.514;1.498;2023-06-14T05:15:58;18.90;;;11.65;;
78877;SDS011;68257;43.514;1.498;2023-06-14T05:18:24;18.25;;;12.10;;
78877;SDS011;68257;43.514;1.498;2023-06-14T05:20:50;20.70;;;13.10;;
78877;SDS011;68257;43.514;1.498;2023-06-14T05:23:16;19.95;;;12.57;;
78877;SDS011;68257;43.514;1.498;2023-06-14T05:25:42;18.17;;;12.40;;
78877;SDS011;68257;43.514;1.498;2023-06-14T05:28:08;19.60;;;13.20;;
78877;SDS011;68257;43.514;1.498;2023-06-14T05:30:34;16.67;;;12.80;;
78877;SDS011;68257;43.514;1.498;2023-06-14T05:32:59;17.05;;;12.55;;
78877;SDS011;68257;43.514;1.498;2023-06-14T05:35:25;20.77;;;13.43;;
78877;SDS011;68257;43.514;1.498;2023-06-14T05:37:51;20.05;;;13.45;;
78877;SDS011;68257;43.514;1.498;2023-06-14T05:40:18;19.20;;;12.87;;
78877;SDS011;68257;43.514;1.498;2023-06-14T05:42:44;21.40;;;13.50;;
78877;SDS011;68257;43.514;1.498;2023-06-14T05:45:09;18.60;;;12.10;;
78877;SDS011;68257;43.514;1.498;2023-06-14T05:47:35;18.03;;;13.13;;
78877;SDS011;68257;43.514;1.498;2023-06-14T05:50:00;16.60;;;11.68;;
78877;SDS011;68257;43.514;1.498;2023-06-14T05:52:26;17.80;;;12.70;;
78877;SDS011;68257;43.514;1.498;2023-06-14T05:54:51;20.07;;;12.77;;
78877;SDS011;68257;43.514;1.498;2023-06-14T05:57:16;21.70;;;12.70;;
78877;SDS011;68257;43.514;1.498;2023-06-14T05:59:42;20.20;;;12.40;;
78877;SDS011;68257;43.514;1.498;2023-06-14T06:02:08;17.05;;;12.43;;
78877;SDS011;68257;43.514;1.498;2023-06-14T06:04:33;17.73;;;12.93;;
78877;SDS011;68257;43.514;1.498;2023-06-14T06:06:59;18.67;;;12.57;;
78877;SDS011;68257;43.514;1.498;2023-06-14T06:09:24;18.30;;;13.20;;
78877;SDS011;68257;43.514;1.498;2023-06-14T06:11:49;16.23;;;12.35;;
78877;SDS011;68257;43.514;1.498;2023-06-14T06:14:15;20.20;;;12.60;;
78877;SDS011;68257;43.514;1.498;2023-06-14T06:16:40;19.93;;;13.80;;
78877;SDS011;68257;43.514;1.498;2023-06-14T06:19:06;22.70;;;13.73;;
78877;SDS011;68257;43.514;1.498;2023-06-14T06:21:32;20.30;;;13.60;;
78877;SDS011;68257;43.514;1.498;2023-06-14T06:23:57;17.53;;;12.93;;
78877;SDS011;68257;43.514;1.498;2023-06-14T06:26:22;16.83;;;12.13;;
78877;SDS011;68257;43.514;1.498;2023-06-14T06:28:48;19.20;;;12.47;;
78877;SDS011;68257;43.514;1.498;2023-06-14T06:31:15;17.10;;;12.82;;
78877;SDS011;68257;43.514;1.498;2023-06-14T06:33:40;17.80;;;12.27;;
78877;SDS011;68257;43.514;1.498;2023-06-14T06:36:06;17.67;;;11.90;;
78877;SDS011;68257;43.514;1.498;2023-06-14T06:38:31;14.67;;;11.90;;
78877;SDS011;68257;43.514;1.498;2023-06-14T06:40:57;19.10;;;12.77;;
78877;SDS011;68257;43.514;1.498;2023-06-14T06:43:22;15.90;;;12.13;;
78877;SDS011;68257;43.514;1.498;2023-06-14T06:45:48;17.43;;;12.83;;
78877;SDS011;68257;43.514;1.498;2023-06-14T06:48:13;17.20;;;12.43;;
78877;SDS011;68257;43.514;1.498;2023-06-14T06:50:38;18.50;;;13.50;;
78877;SDS011;68257;43.514;1.498;2023-06-14T06:53:04;19.92;;;13.60;;
78877;SDS011;68257;43.514;1.498;2023-06-14T06:55:30;18.10;;;12.93;;
78877;SDS011;68257;43.514;1.498;2023-06-14T06:57:55;18.30;;;13.43;;
78877;SDS011;68257;43.514;1.498;2023-06-14T07:00:21;18.60;;;13.50;;
78877;SDS011;68257;43.514;1.498;2023-06-14T07:02:46;17.43;;;12.70;;
78877;SDS011;68257;43.514;1.498;2023-06-14T07:05:12;18.00;;;12.38;;
78877;SDS011;68257;43.514;1.498;2023-06-14T07:07:38;15.93;;;12.35;;
78877;SDS011;68257;43.514;1.498;2023-06-14T07:10:04;17.30;;;12.02;;
78877;SDS011;68257;43.514;1.498;2023-06-14T07:12:33;17.58;;;13.05;;
78877;SDS011;68257;43.514;1.498;2023-06-14T07:15:01;15.38;;;12.15;;
78877;SDS011;68257;43.514;1.498;2023-06-14T07:17:26;17.67;;;12.55;;
78877;SDS011;68257;43.514;1.498;2023-06-14T07:19:52;17.45;;;12.07;;
78877;SDS011;68257;43.514;1.498;2023-06-14T07:22:18;19.75;;;12.90;;
78877;SDS011;68257;43.514;1.498;2023-06-14T07:24:44;18.40;;;13.03;;
78877;SDS011;68257;43.514;1.498;2023-06-14T07:27:09;17.02;;;12.57;;
78877;SDS011;68257;43.514;1.498;2023-06-14T07:29:35;18.57;;;12.80;;
78877;SDS011;68257;43.514;1.498;2023-06-14T07:32:01;20.33;;;13.15;;
78877;SDS011;68257;43.514;1.498;2023-06-14T07:34:26;16.27;;;11.30;;
78877;SDS011;68257;43.514;1.498;2023-06-14T07:36:52;19.00;;;12.43;;
78877;SDS011;68257;43.514;1.498;2023-06-14T07:39:19;18.33;;;12.23;;
78877;SDS011;68257;43.514;1.498;2023-06-14T07:41:44;20.50;;;12.60;;
78877;SDS011;68257;43.514;1.498;2023-06-14T07:44:10;16.88;;;12.05;;
78877;SDS011;68257;43.514;1.498;2023-06-14T07:46:35;16.03;;;12.00;;
78877;SDS011;68257;43.514;1.498;2023-06-14T07:49:00;17.80;;;12.70;;
78877;SDS011;68257;43.514;1.498;2023-06-14T07:51:26;16.63;;;11.97;;
78877;SDS011;68257;43.514;1.498;2023-06-14T07:53:51;17.30;;;11.93;;
78877;SDS011;68257;43.514;1.498;2023-06-14T07:56:17;19.70;;;12.52;;
78877;SDS011;68257;43.514;1.498;2023-06-14T07:58:42;21.47;;;12.40;;
78877;SDS011;68257;43.514;1.498;2023-06-14T08:01:08;16.30;;;11.23;;
78877;SDS011;68257;43.514;1.498;2023-06-14T08:03:34;18.42;;;11.70;;
78877;SDS011;68257;43.514;1.498;2023-06-14T08:05:59;16.17;;;11.40;;
78877;SDS011;68257;43.514;1.498;2023-06-14T08:08:25;15.93;;;11.95;;
78877;SDS011;68257;43.514;1.498;2023-06-14T08:10:51;17.05;;;12.35;;
78877;SDS011;68257;43.514;1.498;2023-06-14T08:13:17;21.60;;;13.10;;
78877;SDS011;68257;43.514;1.498;2023-06-14T08:15:42;18.43;;;12.37;;
78877;SDS011;68257;43.514;1.498;2023-06-14T08:18:10;17.40;;;11.98;;
78877;SDS011;68257;43.514;1.498;2023-06-14T08:20:36;15.77;;;12.00;;
78877;SDS011;68257;43.514;1.498;2023-06-14T08:23:02;16.23;;;12.18;;
78877;SDS011;68257;43.514;1.498;2023-06-14T08:25:29;18.23;;;11.45;;
78877;SDS011;68257;43.514;1.498;2023-06-14T08:27:55;19.33;;;11.60;;
78877;SDS011;68257;43.514;1.498;2023-06-14T08:30:21;17.47;;;11.30;;
78877;SDS011;68257;43.514;1.498;2023-06-14T08:32:46;14.63;;;10.45;;
78877;SDS011;68257;43.514;1.498;2023-06-14T08:35:12;14.80;;;10.73;;
78877;SDS011;68257;43.514;1.498;2023-06-14T08:37:38;14.13;;;10.00;;
78877;SDS011;68257;43.514;1.498;2023-06-14T08:40:07;17.13;;;10.32;;
78877;SDS011;68257;43.514;1.498;2023-06-14T08:42:51;17.42;;;10.77;;
78877;SDS011;68257;43.514;1.498;2023-06-14T08:45:19;15.50;;;10.45;;
78877;SDS011;68257;43.514;1.498;2023-06-14T08:47:47;14.18;;;10.02;;
78877;SDS011;68257;43.514;1.498;2023-06-14T08:50:26;15.43;;;10.03;;
78877;SDS011;68257;43.514;1.498;2023-06-14T08:52:55;14.63;;;9.75;;
78877;SDS011;68257;43.514;1.498;2023-06-14T08:55:25;15.55;;;9.85;;
78877;SDS011;68257;43.514;1.498;2023-06-14T08:57:55;15.23;;;10.45;;
78877;SDS011;68257;43.514;1.498;2023-06-14T09:00:25;15.95;;;10.02;;
78877;SDS011;68257;43.514;1.498;2023-06-14T09:02:52;14.97;;;10.63;;
78877;SDS011;68257;43.514;1.498;2023-06-14T09:05:22;15.38;;;9.98;;
78877;SDS011;68257;43.514;1.498;2023-06-14T09:07:51;15.05;;;10.27;;
78877;SDS011;68257;43.514;1.498;2023-06-14T09:10:17;16.90;;;10.70;;
78877;SDS011;68257;43.514;1.498;2023-06-14T09:12:43;15.47;;;10.07;;
78877;SDS011;68257;43.514;1.498;2023-06-14T09:15:09;17.05;;;9.98;;
78877;SDS011;68257;43.514;1.498;2023-06-14T09:17:35;14.63;;;9.63;;
78877;SDS011;68257;43.514;1.498;2023-06-14T09:20:03;13.07;;;9.40;;
78877;SDS011;68257;43.514;1.498;2023-06-14T09:22:42;16.05;;;9.23;;
78877;SDS011;68257;43.514;1.498;2023-06-14T09:25:08;15.53;;;10.00;;
78877;SDS011;68257;43.514;1.498;2023-06-14T09:27:33;15.98;;;10.15;;
78877;SDS011;68257;43.514;1.498;2023-06-14T09:30:00;16.37;;;10.40;;
78877;SDS011;68257;43.514;1.498;2023-06-14T09:32:26;15.57;;;9.75;;
78877;SDS011;68257;43.514;1.498;2023-06-14T09:34:52;13.13;;;9.13;;
78877;SDS011;68257;43.514;1.498;2023-06-14T09:37:30;16.98;;;10.52;;
78877;SDS011;68257;43.514;1.498;2023-06-14T09:39:56;15.77;;;10.75;;
78877;SDS011;68257;43.514;1.498;2023-06-14T09:42:23;15.00;;;9.68;;
78877;SDS011;68257;43.514;1.498;2023-06-14T09:44:51;19.77;;;9.38;;
78877;SDS011;68257;43.514;1.498;2023-06-14T09:47:17;15.68;;;9.73;;
78877;SDS011;68257;43.514;1.498;2023-06-14T09:49:43;15.55;;;10.70;;
78877;SDS011;68257;43.514;1.498;2023-06-14T09:52:15;15.10;;;9.93;;
78877;SDS011;68257;43.514;1.498;2023-06-14T09:54:42;14.38;;;9.38;;
78877;SDS011;68257;43.514;1.498;2023-06-14T09:57:11;17.35;;;9.90;;
78877;SDS011;68257;43.514;1.498;2023-06-14T09:59:39;13.57;;;9.38;;
78877;SDS011;68257;43.514;1.498;2023-06-14T10:02:09;13.70;;;9.65;;
78877;SDS011;68257;43.514;1.498;2023-06-14T10:04:45;15.77;;;9.60;;
78877;SDS011;68257;43.514;1.498;2023-06-14T10:07:12;14.38;;;9.52;;
78877;SDS011;68257;43.514;1.498;2023-06-14T10:09:40;14.05;;;9.43;;
78877;SDS011;68257;43.514;1.498;2023-06-14T10:12:09;12.82;;;9.60;;
78877;SDS011;68257;43.514;1.498;2023-06-14T10:14:35;13.43;;;9.30;;
78877;SDS011;68257;43.514;1.498;2023-06-14T10:17:08;16.43;;;10.07;;
78877;SDS011;68257;43.514;1.498;2023-06-14T10:19:41;19.00;;;10.25;;
78877;SDS011;68257;43.514;1.498;2023-06-14T10:22:10;12.68;;;9.93;;
78877;SDS011;68257;43.514;1.498;2023-06-14T10:24:42;16.37;;;10.20;;
78877;SDS011;68257;43.514;1.498;2023-06-14T10:27:10;14.68;;;9.63;;
78877;SDS011;68257;43.514;1.498;2023-06-14T10:32:20;13.73;;;9.65;;
78877;SDS011;68257;43.514;1.498;2023-06-14T10:34:49;14.70;;;9.60;;
78877;SDS011;68257;43.514;1.498;2023-06-14T10:37:22;15.40;;;9.77;;
78877;SDS011;68257;43.514;1.498;2023-06-14T10:39:47;15.65;;;9.40;;
78877;SDS011;68257;43.514;1.498;2023-06-14T10:42:13;12.90;;;8.70;;
78877;SDS011;68257;43.514;1.498;2023-06-14T10:44:39;14.85;;;9.38;;
78877;SDS011;68257;43.514;1.498;2023-06-14T10:47:07;16.23;;;9.70;;
78877;SDS011;68257;43.514;1.498;2023-06-14T10:57:38;12.25;;;8.90;;
78877;SDS011;68257;43.514;1.498;2023-06-14T11:00:04;11.85;;;8.52;;
78877;SDS011;68257;43.514;1.498;2023-06-14T11:05:26;12.40;;;8.75;;
78877;SDS011;68257;43.514;1.498;2023-06-14T11:10:52;13.85;;;8.38;;
78877;SDS011;68257;43.514;1.498;2023-06-14T11:13:25;13.77;;;9.25;;
78877;SDS011;68257;43.514;1.498;2023-06-14T11:15:51;11.43;;;8.80;;
78877;SDS011;68257;43.514;1.498;2023-06-14T11:18:18;13.45;;;9.70;;
78877;SDS011;68257;43.514;1.498;2023-06-14T11:20:45;11.80;;;9.53;;
78877;SDS011;68257;43.514;1.498;2023-06-14T11:23:11;12.45;;;8.90;;
78877;SDS011;68257;43.514;1.498;2023-06-14T11:25:36;11.07;;;9.93;;
78877;SDS011;68257;43.514;1.498;2023-06-14T11:28:02;12.30;;;9.30;;
78877;SDS011;68257;43.514;1.498;2023-06-14T11:30:27;11.57;;;8.80;;
78877;SDS011;68257;43.514;1.498;2023-06-14T11:32:53;12.47;;;9.40;;
78877;SDS011;68257;43.514;1.498;2023-06-14T11:35:23;10.13;;;8.60;;
78877;SDS011;68257;43.514;1.498;2023-06-14T11:37:50;11.50;;;8.48;;
78877;SDS011;68257;43.514;1.498;2023-06-14T11:40:18;10.80;;;8.68;;
78877;SDS011;68257;43.514;1.498;2023-06-14T11:42:44;11.03;;;9.40;;
78877;SDS011;68257;43.514;1.498;2023-06-14T11:45:10;10.37;;;8.63;;
78877;SDS011;68257;43.514;1.498;2023-06-14T11:47:37;10.32;;;8.32;;
78877;SDS011;68257;43.514;1.498;2023-06-14T11:50:04;9.98;;;8.40;;
78877;SDS011;68257;43.514;1.498;2023-06-14T11:52:31;11.23;;;9.73;;
78877;SDS011;68257;43.514;1.498;2023-06-14T11:54:57;12.07;;;9.17;;
78877;SDS011;68257;43.514;1.498;2023-06-14T11:57:23;11.40;;;7.88;;
78877;SDS011;68257;43.514;1.498;2023-06-14T11:59:49;10.35;;;8.00;;
78877;SDS011;68257;43.514;1.498;2023-06-14T12:02:15;10.57;;;8.30;;
78877;SDS011;68257;43.514;1.498;2023-06-14T12:04:41;12.60;;;8.23;;
78877;SDS011;68257;43.514;1.498;2023-06-14T12:07:11;11.90;;;8.45;;
78877;SDS011;68257;43.514;1.498;2023-06-14T12:10:03;11.47;;;9.03;;
78877;SDS011;68257;43.514;1.498;2023-06-14T12:12:34;11.57;;;8.93;;
78877;SDS011;68257;43.514;1.498;2023-06-14T12:15:02;14.23;;;8.93;;
78877;SDS011;68257;43.514;1.498;2023-06-14T12:17:34;23.65;;;11.88;;
78877;SDS011;68257;43.514;1.498;2023-06-14T12:20:13;21.45;;;10.85;;
78877;SDS011;68257;43.514;1.498;2023-06-14T12:22:50;24.70;;;10.83;;
78877;SDS011;68257;43.514;1.498;2023-06-14T12:25:35;18.88;;;10.45;;
78877;SDS011;68257;43.514;1.498;2023-06-14T12:28:05;29.42;;;12.45;;
78877;SDS011;68257;43.514;1.498;2023-06-14T12:30:32;12.05;;;7.80;;
78877;SDS011;68257;43.514;1.498;2023-06-14T12:32:58;9.40;;;8.05;;
78877;SDS011;68257;43.514;1.498;2023-06-14T12:35:23;11.30;;;8.20;;
78877;SDS011;68257;43.514;1.498;2023-06-14T12:38:01;8.60;;;7.70;;
78877;SDS011;68257;43.514;1.498;2023-06-14T12:40:26;10.13;;;7.88;;
78877;SDS011;68257;43.514;1.498;2023-06-14T12:42:52;9.93;;;8.10;;
78877;SDS011;68257;43.514;1.498;2023-06-14T12:45:17;12.77;;;9.27;;
78877;SDS011;68257;43.514;1.498;2023-06-14T12:47:42;10.83;;;9.50;;
78877;SDS011;68257;43.514;1.498;2023-06-14T12:50:08;10.80;;;8.43;;
78877;SDS011;68257;43.514;1.498;2023-06-14T12:52:33;11.83;;;9.27;;
78877;SDS011;68257;43.514;1.498;2023-06-14T12:55:01;9.80;;;8.85;;
78877;SDS011;68257;43.514;1.498;2023-06-14T12:57:30;12.37;;;8.50;;
78877;SDS011;68257;43.514;1.498;2023-06-14T12:59:55;11.15;;;7.80;;
78877;SDS011;68257;43.514;1.498;2023-06-14T13:02:20;9.33;;;8.33;;
78877;SDS011;68257;43.514;1.498;2023-06-14T13:04:48;10.10;;;9.10;;
78877;SDS011;68257;43.514;1.498;2023-06-14T13:07:14;14.67;;;8.93;;
78877;SDS011;68257;43.514;1.498;2023-06-14T13:09:40;11.77;;;8.40;;
78877;SDS011;68257;43.514;1.498;2023-06-14T13:12:06;10.90;;;8.50;;
78877;SDS011;68257;43.514;1.498;2023-06-14T13:14:32;10.80;;;8.32;;
78877;SDS011;68257;43.514;1.498;2023-06-14T13:16:57;10.30;;;9.27;;
78877;SDS011;68257;43.514;1.498;2023-06-14T13:19:23;9.70;;;8.02;;
78877;SDS011;68257;43.514;1.498;2023-06-14T13:21:48;9.53;;;8.53;;
78877;SDS011;68257;43.514;1.498;2023-06-14T13:24:14;11.37;;;9.10;;
78877;SDS011;68257;43.514;1.498;2023-06-14T13:26:39;11.00;;;9.82;;
78877;SDS011;68257;43.514;1.498;2023-06-14T13:29:05;12.00;;;9.43;;
78877;SDS011;68257;43.514;1.498;2023-06-14T13:31:30;9.57;;;8.13;;
78877;SDS011;68257;43.514;1.498;2023-06-14T13:33:56;10.93;;;9.40;;
78877;SDS011;68257;43.514;1.498;2023-06-14T13:36:21;10.32;;;8.98;;
78877;SDS011;68257;43.514;1.498;2023-06-14T13:38:47;10.67;;;9.07;;
78877;SDS011;68257;43.514;1.498;2023-06-14T13:41:12;11.37;;;7.67;;
78877;SDS011;68257;43.514;1.498;2023-06-14T13:43:37;8.97;;;7.90;;
78877;SDS011;68257;43.514;1.498;2023-06-14T13:46:03;9.83;;;8.83;;
78877;SDS011;68257;43.514;1.498;2023-06-14T13:48:29;11.67;;;9.10;;
78877;SDS011;68257;43.514;1.498;2023-06-14T13:50:54;9.55;;;8.52;;
78877;SDS011;68257;43.514;1.498;2023-06-14T13:53:20;10.83;;;8.77;;
78877;SDS011;68257;43.514;1.498;2023-06-14T13:55:45;9.30;;;8.40;;
78877;SDS011;68257;43.514;1.498;2023-06-14T13:58:10;10.10;;;8.57;;
78877;SDS011;68257;43.514;1.498;2023-06-14T14:00:36;10.47;;;8.90;;
78877;SDS011;68257;43.514;1.498;2023-06-14T14:03:05;9.57;;;8.35;;
78877;SDS011;68257;43.514;1.498;2023-06-14T14:05:31;9.85;;;7.47;;
78877;SDS011;68257;43.514;1.498;2023-06-14T14:07:56;9.17;;;7.20;;
78877;SDS011;68257;43.514;1.498;2023-06-14T14:10:24;10.43;;;8.03;;
78877;SDS011;68257;43.514;1.498;2023-06-14T14:12:50;8.88;;;7.25;;
78877;SDS011;68257;43.514;1.498;2023-06-14T14:15:21;9.88;;;7.55;;
78877;SDS011;68257;43.514;1.498;2023-06-14T14:17:50;12.07;;;8.27;;
78877;SDS011;68257;43.514;1.498;2023-06-14T14:20:18;9.73;;;7.10;;
78877;SDS011;68257;43.514;1.498;2023-06-14T14:22:45;8.73;;;7.65;;
78877;SDS011;68257;43.514;1.498;2023-06-14T14:25:11;12.70;;;8.38;;
78877;SDS011;68257;43.514;1.498;2023-06-14T14:27:36;11.73;;;9.17;;
78877;SDS011;68257;43.514;1.498;2023-06-14T14:30:04;12.70;;;8.95;;
78877;SDS011;68257;43.514;1.498;2023-06-14T14:32:30;10.73;;;8.50;;
78877;SDS011;68257;43.514;1.498;2023-06-14T14:34:58;11.25;;;8.70;;
78877;SDS011;68257;43.514;1.498;2023-06-14T14:37:26;10.25;;;8.65;;
78877;SDS011;68257;43.514;1.498;2023-06-14T14:39:51;14.30;;;8.63;;
78877;SDS011;68257;43.514;1.498;2023-06-14T14:42:17;11.48;;;8.70;;
78877;SDS011;68257;43.514;1.498;2023-06-14T14:44:43;10.30;;;8.18;;
78877;SDS011;68257;43.514;1.498;2023-06-14T14:47:09;11.25;;;8.45;;
78877;SDS011;68257;43.514;1.498;2023-06-14T14:49:37;12.13;;;8.00;;